Spears Grove, Pennsylvania
Current Conditions -  °F | °C
As of 10:53 AM on Wednesday 28 Jan 2015 (Local Time) from KAOO Reporting Station
Clear Clear  
Wind Chill:   Ceiling: Unl
Heat Index: 18°   Visibility: 10mi
Dew Point:   Wind: 13mph
Humidity: 54%   Direction: 320°NW
Pressure: 30.23"   Gusts: NA
Location:  40.3617°N, 77.6745°W
Report Text: KAOO 281553Z AUTO 32011KT 10SM CLR M08/M16 A3023 RMK AO2 SLP265 T10781156
Loading
Personal Weather Stations






























Interactive Weather Map New forecast layout! Learn more

10-Day Weather Forecast

Advertisements
Track Severe Weather on mobile